This is the latest recevied weather packets stored in our database for station/object WG5EEK. If no packets are shown the sender has not sent any weather packets the latest 10 day(s).
| Time | Temp. | Humidity | Pressure | Rain* | Wind** | Luminosity | Snow |
|---|---|---|---|---|---|---|---|
| 1777476601 | 19.44° C | 72% | 983.7 hPa | - | - | - | - |
| 1777476242 | 19.44° C | 73% | 983.8 hPa | - | - | - | - |
| 1777473362 | 17.78° C | 77% | 985.9 hPa | - | - | - | - |
| 1777471922 | 17.78° C | 78% | 986.7 hPa | - | - | - | - |
| 1777471226 | 17.22° C | 79% | 987.3 hPa | - | - | - | - |
| 1777467601 | 16.67° C | 82% | 988.3 hPa | - | - | - | - |
| 1777465802 | 16.11° C | 83% | 988.4 hPa | - | - | - | - |
| 1777463642 | 16.11° C | 84% | 988.1 hPa | - | - | - | - |
| 1777462202 | 16.11° C | 85% | 988 hPa | - | - | - | - |
| 1777461482 | 16.11° C | 85% | 987.8 hPa | - | - | - | - |
| 1777458243 | 16.67° C | 85% | 986.5 hPa | - | - | - | - |
| 1777457522 | 16.67° C | 85% | 986.2 hPa | - | - | - | - |
| 1777454642 | 17.22° C | 84% | 984.7 hPa | - | - | - | - |
| 1777453201 | 17.22° C | 84% | 984.2 hPa | - | - | - | - |
| 1777452843 | 17.22° C | 84% | 984 hPa | - | - | - | - |
| 1777450322 | 17.78° C | 84% | 983.4 hPa | - | - | - | - |
| 1777446362 | 17.78° C | 85% | 983.8 hPa | - | - | - | - |
| 1777444921 | 17.78° C | 85% | 983.9 hPa | - | - | - | - |
| 1777442042 | 17.78° C | 85% | 983.6 hPa | - | - | - | - |
| 1777441682 | 17.78° C | 85% | 983.7 hPa | - | - | - | - |
| 1777437721 | 18.33° C | 86% | 982.7 hPa | - | - | - | - |
| 1777434842 | 18.89° C | 87% | 981.3 hPa | - | - | - | - |
| 1777431962 | 20° C | 89% | 979.1 hPa | - | - | - | - |
| 1777431602 | 20° C | 89% | 979 hPa | - | - | - | - |
| 1777431242 | 20° C | 89% | 978.6 hPa | - | - | - | - |
* Rain since midnight (hover to see other rain measurements)
** Current wind speed in m/s (hover to see current wind gust speed)